createdAt,value
2019-01-30T00:00:30.538Z,99.80
2019-01-30T00:03:08.948Z,99.40
2019-01-30T00:05:44.277Z,98.60
2019-01-30T00:08:11.187Z,97.80
2019-01-30T00:10:38.609Z,97.30
2019-01-30T00:13:06.765Z,97.10
2019-01-30T00:15:37.754Z,97.90
2019-01-30T00:18:05.932Z,97.20
2019-01-30T00:20:36.708Z,97.60
2019-01-30T00:23:06.464Z,97.10
2019-01-30T00:25:41.152Z,96.70
2019-01-30T00:28:08.714Z,96.20
2019-01-30T00:30:36.125Z,96.70
2019-01-30T00:33:05.423Z,97.20
2019-01-30T00:35:32.341Z,96.80
2019-01-30T00:38:05.327Z,96.00
2019-01-30T00:40:35.811Z,97.60
2019-01-30T00:43:02.409Z,97.40
2019-01-30T00:45:31.367Z,98.50
2019-01-30T00:48:07.003Z,98.20
2019-01-30T00:50:41.822Z,97.10
2019-01-30T00:53:09.109Z,96.30
2019-01-30T00:55:40.227Z,95.70
2019-01-30T00:58:08.026Z,95.30
2019-01-30T01:00:34.695Z,95.00
2019-01-30T01:03:01.337Z,94.50
2019-01-30T01:05:28.042Z,94.20
2019-01-30T01:07:54.990Z,94.20
2019-01-30T01:10:21.598Z,94.10
2019-01-30T01:12:52.831Z,94.80
2019-01-30T01:15:22.751Z,94.80
2019-01-30T01:17:52.918Z,94.80
2019-01-30T01:20:28.407Z,94.50
2019-01-30T01:22:51.357Z,94.50
2019-01-30T01:25:19.313Z,94.60
2019-01-30T01:27:52.181Z,94.10
2019-01-30T01:30:25.375Z,93.90
2019-01-30T01:32:48.899Z,93.30
2019-01-30T01:35:16.818Z,93.50
2019-01-30T01:37:44.902Z,93.70
2019-01-30T01:40:14.419Z,93.70
2019-01-30T01:42:41.280Z,93.90
2019-01-30T01:45:11.091Z,94.30
2019-01-30T01:47:41.792Z,95.10
2019-01-30T01:50:09.040Z,95.20
2019-01-30T01:52:36.673Z,95.50
2019-01-30T01:55:07.437Z,96.00
2019-01-30T01:57:35.088Z,96.00
2019-01-30T02:00:03.947Z,96.10
2019-01-30T02:02:30.747Z,95.70
2019-01-30T02:04:57.938Z,95.60
2019-01-30T02:07:25.455Z,95.90
2019-01-30T02:09:52.081Z,96.00
2019-01-30T02:12:18.717Z,96.20
2019-01-30T02:14:46.644Z,96.50
2019-01-30T02:17:14.745Z,96.30
2019-01-30T02:19:41.448Z,96.80
2019-01-30T02:22:08.436Z,98.60
2019-01-30T02:24:35.099Z,99.90
2019-01-30T02:27:01.832Z,99.90
2019-01-30T02:29:28.999Z,99.00
2019-01-30T02:31:55.794Z,97.20
2019-01-30T02:34:23.058Z,96.20
2019-01-30T02:36:50.095Z,95.50
2019-01-30T02:41:48.952Z,94.80
2019-01-30T02:44:15.936Z,96.30
2019-01-30T02:46:42.595Z,95.80
2019-01-30T02:49:11.774Z,95.30
2019-01-30T02:51:42.607Z,94.50
2019-01-30T02:54:12.382Z,95.10
2019-01-30T02:59:27.964Z,95.20
2019-01-30T03:01:54.590Z,96.90
2019-01-30T03:04:21.558Z,96.20
2019-01-30T03:06:48.576Z,96.10
2019-01-30T03:09:15.920Z,96.10
2019-01-30T03:11:42.726Z,96.40
2019-01-30T03:14:10.158Z,95.50
2019-01-30T03:16:36.944Z,96.00
2019-01-30T03:19:03.720Z,95.20
2019-01-30T03:21:30.361Z,95.50
2019-01-30T03:23:57.010Z,95.60
2019-01-30T03:26:23.923Z,95.20
2019-01-30T03:28:50.835Z,95.30
2019-01-30T03:31:19.372Z,95.60
2019-01-30T03:33:46.384Z,95.40
2019-01-30T03:36:12.968Z,95.80
2019-01-30T03:38:39.941Z,96.30
2019-01-30T03:41:06.879Z,95.40
2019-01-30T03:43:33.607Z,96.10
2019-01-30T03:46:00.281Z,96.90
2019-01-30T03:48:27.124Z,96.80
2019-01-30T03:50:54.395Z,97.30
2019-01-30T03:53:21.139Z,97.70
2019-01-30T03:55:48.454Z,97.40
2019-01-30T03:58:16.609Z,97.50
2019-01-30T04:00:43.427Z,96.50
2019-01-30T04:03:10.401Z,98.10
2019-01-30T04:05:37.265Z,99.30
2019-01-30T04:08:03.910Z,99.90
2019-01-30T04:10:30.627Z,99.90
2019-01-30T04:12:57.708Z,99.90
2019-01-30T04:15:24.397Z,99.90
2019-01-30T04:17:51.158Z,99.90
2019-01-30T04:20:17.867Z,99.00
2019-01-30T04:22:44.566Z,99.80
2019-01-30T04:25:11.578Z,99.90
2019-01-30T04:27:38.698Z,98.30
2019-01-30T04:30:05.690Z,99.60
2019-01-30T04:35:17.217Z,98.50
2019-01-30T04:37:43.865Z,97.80
2019-01-30T04:40:15.507Z,97.80
2019-01-30T04:42:42.228Z,97.30
2019-01-30T04:45:09.485Z,98.60
2019-01-30T04:47:38.669Z,98.50
2019-01-30T04:50:07.385Z,98.90
2019-01-30T04:52:36.391Z,97.80
2019-01-30T04:55:03.145Z,97.30
2019-01-30T04:57:33.590Z,96.80
2019-01-30T05:00:00.352Z,97.00
2019-01-30T05:02:27.708Z,96.60
2019-01-30T05:04:54.402Z,96.00
2019-01-30T05:07:21.180Z,97.30
2019-01-30T05:09:48.068Z,97.80
2019-01-30T05:12:14.787Z,99.80
2019-01-30T05:14:41.419Z,99.90
2019-01-30T05:17:08.288Z,98.90
2019-01-30T05:19:34.945Z,97.70
2019-01-30T05:22:01.618Z,97.90
2019-01-30T05:24:28.256Z,98.10
2019-01-30T05:26:54.892Z,97.40
2019-01-30T05:29:21.746Z,97.20
2019-01-30T05:31:48.669Z,96.80
2019-01-30T05:34:15.381Z,96.80
2019-01-30T05:36:41.975Z,98.10
2019-01-30T05:39:08.818Z,98.30
2019-01-30T05:41:35.778Z,97.90
2019-01-30T05:44:02.601Z,97.00
2019-01-30T05:46:29.289Z,97.30
2019-01-30T05:48:56.239Z,97.10
2019-01-30T05:51:23.024Z,97.90
2019-01-30T05:53:50.376Z,99.90
2019-01-30T05:56:20.218Z,99.90
2019-01-30T05:58:49.696Z,99.90
2019-01-30T06:01:17.569Z,99.90
2019-01-30T06:03:44.219Z,99.90
2019-01-30T06:06:11.035Z,98.90
2019-01-30T06:08:37.643Z,98.80
2019-01-30T06:11:04.588Z,98.40
2019-01-30T06:13:31.366Z,98.40
2019-01-30T06:15:58.518Z,98.70
2019-01-30T06:18:25.249Z,97.80
2019-01-30T06:20:52.465Z,98.50
2019-01-30T06:23:19.326Z,98.30
2019-01-30T06:25:46.300Z,98.00
2019-01-30T06:28:12.944Z,98.30
2019-01-30T06:30:39.680Z,97.70
2019-01-30T06:33:06.531Z,97.20
2019-01-30T06:35:33.569Z,97.10
2019-01-30T06:38:00.796Z,96.80
2019-01-30T06:40:27.886Z,97.10
2019-01-30T06:42:54.785Z,97.30
2019-01-30T06:45:21.841Z,97.00
2019-01-30T06:47:49.146Z,97.00
2019-01-30T06:50:15.794Z,97.20
2019-01-30T06:52:43.282Z,97.60
2019-01-30T06:55:12.772Z,97.30
2019-01-30T06:57:40.399Z,95.40
2019-01-30T07:00:07.167Z,94.70
2019-01-30T07:02:34.178Z,94.30
2019-01-30T07:05:01.400Z,94.40
2019-01-30T07:07:28.212Z,94.80
2019-01-30T07:09:55.192Z,95.20
2019-01-30T07:12:22.228Z,95.30
2019-01-30T07:14:49.931Z,95.90
2019-01-30T07:17:16.565Z,95.40
2019-01-30T07:19:43.297Z,95.90
2019-01-30T07:22:10.201Z,95.70
2019-01-30T07:24:36.801Z,95.60
2019-01-30T07:27:03.404Z,95.20
2019-01-30T07:29:30.057Z,95.40
2019-01-30T07:31:56.824Z,95.40
2019-01-30T07:34:23.452Z,95.20
2019-01-30T07:36:50.157Z,95.10
2019-01-30T07:39:16.853Z,94.90
2019-01-30T07:41:43.584Z,95.40
2019-01-30T07:44:10.504Z,94.10
2019-01-30T07:46:37.212Z,94.20
2019-01-30T07:49:03.871Z,95.20
2019-01-30T07:51:30.669Z,94.70
2019-01-30T07:53:57.646Z,93.20
2019-01-30T07:56:24.313Z,93.20
2019-01-30T07:58:51.191Z,92.80
2019-01-30T08:01:17.860Z,93.00
2019-01-30T08:03:44.880Z,93.80
2019-01-30T08:06:11.780Z,93.50
2019-01-30T08:08:38.468Z,94.10
2019-01-30T08:11:07.313Z,94.50
2019-01-30T08:13:33.719Z,94.60
2019-01-30T08:16:00.519Z,94.10
2019-01-30T08:18:27.502Z,94.10
2019-01-30T08:20:54.176Z,93.70
2019-01-30T08:23:21.427Z,94.40
2019-01-30T08:25:48.252Z,93.50
2019-01-30T08:28:15.934Z,92.60
2019-01-30T08:30:43.323Z,91.50
2019-01-30T08:33:10.218Z,92.60
2019-01-30T08:35:38.650Z,93.40
2019-01-30T08:41:16.606Z,94.80
2019-01-30T08:44:17.686Z,94.00
2019-01-30T08:46:05.316Z,94.00
2019-01-30T08:48:41.638Z,93.20
2019-01-30T08:54:21.141Z,92.80
2019-01-30T08:56:39.076Z,92.20
2019-01-30T09:05:03.011Z,91.50
2019-01-30T09:07:44.339Z,90.80
2019-01-30T09:18:48.040Z,92.20
2019-01-30T09:21:43.663Z,92.20
2019-01-30T09:26:40.520Z,91.10
2019-01-30T09:29:33.667Z,90.70
2019-01-30T09:32:13.903Z,91.40
2019-01-30T09:34:53.135Z,91.10
2019-01-30T09:38:46.307Z,92.20
2019-01-30T09:45:55.071Z,91.40
2019-01-30T09:48:33.866Z,91.60
2019-01-30T09:50:59.755Z,92.00
2019-01-30T09:53:30.249Z,90.00
2019-01-30T09:55:57.207Z,90.20
2019-01-30T09:58:27.008Z,91.80
2019-01-30T10:00:53.684Z,92.90
2019-01-30T10:03:21.576Z,90.40
2019-01-30T10:05:48.250Z,91.00
2019-01-30T10:08:14.923Z,91.60
2019-01-30T10:10:41.531Z,92.30
2019-01-30T10:13:08.443Z,92.30
2019-01-30T10:15:35.630Z,93.00
2019-01-30T10:18:02.381Z,93.20
2019-01-30T10:20:29.058Z,93.00
2019-01-30T10:22:55.772Z,91.70
2019-01-30T10:25:24.920Z,90.20
2019-01-30T10:27:51.928Z,92.00
2019-01-30T10:30:20.726Z,92.10
2019-01-30T10:32:47.717Z,93.10
2019-01-30T10:35:15.734Z,93.20
2019-01-30T10:37:42.654Z,93.60
2019-01-30T10:40:09.307Z,91.10
2019-01-30T10:42:35.955Z,90.20
2019-01-30T10:45:02.851Z,90.10
2019-01-30T10:47:30.080Z,90.40
2019-01-30T10:49:56.845Z,90.60
2019-01-30T10:52:24.086Z,91.50
2019-01-30T10:54:52.249Z,90.80
2019-01-30T10:57:19.043Z,91.70
2019-01-30T10:59:46.031Z,91.40
2019-01-30T11:02:13.052Z,92.50
2019-01-30T11:04:40.098Z,93.50
2019-01-30T11:07:07.061Z,93.50
2019-01-30T11:09:34.302Z,93.80
2019-01-30T11:12:01.141Z,93.20
2019-01-30T11:14:28.200Z,92.40
2019-01-30T11:16:55.182Z,90.90
2019-01-30T11:19:22.690Z,91.10
2019-01-30T11:21:49.370Z,91.20
2019-01-30T11:24:16.270Z,88.80
2019-01-30T11:26:43.001Z,90.70
2019-01-30T11:29:10.088Z,90.20
2019-01-30T11:31:36.788Z,90.00
2019-01-30T11:34:07.682Z,89.10
2019-01-30T11:36:32.093Z,86.50
2019-01-30T11:38:58.742Z,87.00
2019-01-30T11:41:25.960Z,85.80
2019-01-30T11:43:53.157Z,87.70
2019-01-30T11:46:19.816Z,85.10
2019-01-30T11:48:56.012Z,80.10
2019-01-30T11:51:15.378Z,86.00
2019-01-30T11:53:42.071Z,83.20
2019-01-30T11:56:08.857Z,80.20
2019-01-30T11:58:35.852Z,80.50
2019-01-30T12:01:03.553Z,78.60
2019-01-30T12:03:30.335Z,77.40
2019-01-30T12:05:57.183Z,77.00
2019-01-30T12:08:24.038Z,76.30
2019-01-30T12:10:51.081Z,76.90
2019-01-30T12:13:18.110Z,78.70
2019-01-30T12:15:45.028Z,76.90
2019-01-30T12:18:11.663Z,80.80
2019-01-30T12:20:38.398Z,82.30
2019-01-30T12:23:05.162Z,78.70
2019-01-30T12:25:32.144Z,80.40
2019-01-30T12:27:59.112Z,78.00
2019-01-30T12:30:25.833Z,77.30
2019-01-30T12:32:53.971Z,78.60
2019-01-30T12:35:21.013Z,79.70
2019-01-30T12:40:16.911Z,80.20
2019-01-30T12:42:43.577Z,78.00
2019-01-30T12:45:10.265Z,77.70
2019-01-30T12:47:37.758Z,77.30
2019-01-30T12:50:04.536Z,77.30
2019-01-30T12:52:31.739Z,79.60
2019-01-30T12:54:58.449Z,80.10
2019-01-30T12:57:25.788Z,79.40
2019-01-30T12:59:54.002Z,81.70
2019-01-30T13:02:20.732Z,82.60
2019-01-30T13:04:47.628Z,82.40
2019-01-30T13:07:14.509Z,84.10
2019-01-30T13:09:41.210Z,84.40
2019-01-30T13:12:08.071Z,82.60
2019-01-30T13:14:34.982Z,79.50
2019-01-30T13:17:02.173Z,80.30
2019-01-30T13:19:28.921Z,82.90
2019-01-30T13:21:55.922Z,84.20
2019-01-30T13:24:24.378Z,85.10
2019-01-30T13:26:51.008Z,85.80
2019-01-30T13:29:17.943Z,86.40
2019-01-30T13:31:44.708Z,84.20
2019-01-30T13:34:11.422Z,84.90
2019-01-30T13:36:40.120Z,83.80
2019-01-30T13:39:06.624Z,80.70
2019-01-30T13:41:33.343Z,78.00
2019-01-30T13:44:00.519Z,77.80
2019-01-30T13:46:27.416Z,80.80
2019-01-30T13:48:54.850Z,78.90
2019-01-30T13:51:21.503Z,80.60
2019-01-30T13:53:48.561Z,79.00
2019-01-30T13:56:15.420Z,76.80
2019-01-30T13:58:42.967Z,75.00
2019-01-30T14:01:17.177Z,75.40
2019-01-30T14:03:38.568Z,78.00
2019-01-30T14:06:05.671Z,76.30
2019-01-30T14:08:32.616Z,77.50
2019-01-30T14:10:59.550Z,77.80
2019-01-30T14:13:26.496Z,76.90
2019-01-30T14:15:54.558Z,73.80
2019-01-30T14:18:21.283Z,76.40
2019-01-30T14:20:47.917Z,76.00
2019-01-30T14:23:14.952Z,74.50
2019-01-30T14:25:41.856Z,74.70
2019-01-30T14:28:08.797Z,76.70
2019-01-30T14:30:35.509Z,73.80
2019-01-30T14:33:02.549Z,73.40
2019-01-30T14:35:29.208Z,73.60
2019-01-30T14:37:56.555Z,71.60
2019-01-30T14:40:23.265Z,70.50
2019-01-30T14:42:50.154Z,69.80
2019-01-30T14:45:17.264Z,71.30
2019-01-30T14:47:43.884Z,69.50
2019-01-30T14:50:10.624Z,68.60
2019-01-30T14:52:37.369Z,69.10
2019-01-30T14:55:04.314Z,69.90
2019-01-30T14:57:30.972Z,69.70
2019-01-30T14:59:57.765Z,70.30
2019-01-30T15:02:26.333Z,70.90
2019-01-30T15:04:53.372Z,70.20
2019-01-30T15:07:28.880Z,70.70
2019-01-30T15:09:48.548Z,71.70
2019-01-30T15:12:15.478Z,73.10
2019-01-30T15:14:42.272Z,73.60
2019-01-30T15:17:08.978Z,73.80
2019-01-30T15:19:35.747Z,73.30
2019-01-30T15:22:02.941Z,73.10
2019-01-30T15:24:29.736Z,72.90
2019-01-30T15:26:56.828Z,73.40
2019-01-30T15:29:24.060Z,72.00
2019-01-30T15:31:50.795Z,72.20
2019-01-30T15:34:17.626Z,73.00
2019-01-30T15:36:44.478Z,73.40
2019-01-30T15:39:11.332Z,74.30
2019-01-30T15:41:38.418Z,75.20
2019-01-30T15:44:05.457Z,75.90
2019-01-30T15:46:32.228Z,75.40
2019-01-30T15:48:59.225Z,78.10
2019-01-30T15:51:26.446Z,77.20
2019-01-30T15:53:53.038Z,77.60
2019-01-30T15:56:20.247Z,76.50
2019-01-30T15:58:47.153Z,76.10
2019-01-30T16:01:14.069Z,76.70
2019-01-30T16:03:40.776Z,77.40
2019-01-30T16:06:07.430Z,77.90
2019-01-30T16:08:34.293Z,77.00
2019-01-30T16:11:01.047Z,76.80
2019-01-30T16:13:27.994Z,76.70
2019-01-30T16:15:54.773Z,76.10
2019-01-30T16:18:21.595Z,76.20
2019-01-30T16:20:48.723Z,76.30
2019-01-30T16:23:16.360Z,77.30
2019-01-30T16:25:43.084Z,76.50
2019-01-30T16:28:09.856Z,76.80
2019-01-30T16:30:36.830Z,76.70
2019-01-30T16:33:03.792Z,75.60
2019-01-30T16:35:30.721Z,76.20
2019-01-30T16:37:58.947Z,76.60
2019-01-30T16:40:30.881Z,77.90
2019-01-30T16:42:57.912Z,76.80
2019-01-30T16:45:30.303Z,75.90
2019-01-30T16:48:02.203Z,75.70
2019-01-30T16:50:29.294Z,75.30
2019-01-30T16:52:57.851Z,75.60
2019-01-30T16:55:25.488Z,76.10
2019-01-30T16:58:07.360Z,76.40
2019-01-30T17:00:23.202Z,76.10
2019-01-30T17:02:50.143Z,75.30
2019-01-30T17:05:16.840Z,75.10
2019-01-30T17:07:47.063Z,75.40
2019-01-30T17:10:13.689Z,75.30
2019-01-30T17:12:40.519Z,75.80
2019-01-30T17:15:08.154Z,75.70
2019-01-30T17:17:35.761Z,75.90
2019-01-30T17:20:02.640Z,76.10
2019-01-30T17:22:29.525Z,76.10
2019-01-30T17:24:57.930Z,75.90
2019-01-30T17:27:24.659Z,75.00
2019-01-30T17:29:52.409Z,75.00
2019-01-30T17:32:19.056Z,77.20
2019-01-30T17:34:46.139Z,78.30
2019-01-30T17:37:12.815Z,77.70
2019-01-30T17:39:39.443Z,77.20
2019-01-30T17:42:06.365Z,76.50
2019-01-30T17:44:33.049Z,75.90
2019-01-30T17:47:00.115Z,76.00
2019-01-30T17:49:28.367Z,76.80
2019-01-30T17:51:55.057Z,79.20
2019-01-30T17:54:22.046Z,79.00
2019-01-30T17:56:48.773Z,79.60
2019-01-30T17:59:15.448Z,79.90
2019-01-30T18:01:42.494Z,79.40
2019-01-30T18:04:09.313Z,78.60
2019-01-30T18:06:36.194Z,81.30
2019-01-30T18:09:02.850Z,82.00
2019-01-30T18:11:31.564Z,81.80
2019-01-30T18:13:59.784Z,81.00
2019-01-30T18:16:26.931Z,81.60
2019-01-30T18:18:55.915Z,81.30
2019-01-30T18:21:22.536Z,82.50
2019-01-30T18:23:49.636Z,83.00
2019-01-30T18:26:16.539Z,83.90
2019-01-30T18:28:43.262Z,87.90
2019-01-30T18:31:09.983Z,86.50
2019-01-30T18:33:36.665Z,88.40
2019-01-30T18:36:04.637Z,87.30
2019-01-30T18:38:31.256Z,86.50
2019-01-30T18:41:06.201Z,86.50
2019-01-30T18:43:32.871Z,87.70
2019-01-30T18:46:02.091Z,90.10
2019-01-30T18:48:30.363Z,91.00
2019-01-30T18:50:57.120Z,92.10
2019-01-30T18:53:24.760Z,92.70
2019-01-30T18:55:54.558Z,92.00
2019-01-30T18:58:22.219Z,91.50
2019-01-30T19:00:50.436Z,91.00
2019-01-30T19:03:17.110Z,88.40
2019-01-30T19:05:44.108Z,87.70
2019-01-30T19:08:11.403Z,86.30
2019-01-30T19:10:38.509Z,86.40
2019-01-30T19:13:05.520Z,86.90
2019-01-30T19:15:32.432Z,86.20
2019-01-30T19:17:59.697Z,86.30
2019-01-30T19:20:26.401Z,86.60
2019-01-30T19:22:53.265Z,87.30
2019-01-30T19:25:19.881Z,87.70
2019-01-30T19:27:46.948Z,87.80
2019-01-30T19:30:13.588Z,87.70
2019-01-30T19:32:47.114Z,86.60
2019-01-30T19:35:14.504Z,86.10
2019-01-30T19:37:41.703Z,85.80
2019-01-30T19:40:08.383Z,86.30
2019-01-30T19:42:35.313Z,87.10
2019-01-30T19:45:01.919Z,87.20
2019-01-30T19:47:31.266Z,87.90
2019-01-30T19:49:57.855Z,89.30
2019-01-30T19:52:24.515Z,90.00
2019-01-30T19:54:51.139Z,90.40
2019-01-30T19:57:18.077Z,90.10
2019-01-30T19:59:44.837Z,90.10
2019-01-30T20:02:11.573Z,90.40
2019-01-30T20:04:38.302Z,91.00
2019-01-30T20:07:14.558Z,91.20
2019-01-30T20:09:33.544Z,91.50
2019-01-30T20:12:00.655Z,91.20
2019-01-30T20:14:27.227Z,91.00
2019-01-30T20:16:53.854Z,91.10
2019-01-30T20:19:20.442Z,91.00
2019-01-30T20:21:47.336Z,91.30
2019-01-30T20:24:13.994Z,91.10
2019-01-30T20:26:40.576Z,90.90
2019-01-30T20:29:09.448Z,91.20
2019-01-30T20:31:36.467Z,90.50
2019-01-30T20:34:09.942Z,90.20
2019-01-30T20:36:31.766Z,90.20
2019-01-30T20:38:58.390Z,90.70
2019-01-30T20:41:25.063Z,92.10
2019-01-30T20:43:55.977Z,91.90
2019-01-30T20:46:23.555Z,91.30
2019-01-30T20:51:40.937Z,90.90
2019-01-30T20:54:09.024Z,90.50
2019-01-30T20:56:39.328Z,90.60
2019-01-30T20:59:20.261Z,92.30
2019-01-30T21:01:47.518Z,92.50
2019-01-30T21:04:14.156Z,92.20
2019-01-30T21:06:41.161Z,92.30
2019-01-30T21:09:08.050Z,92.20
2019-01-30T21:11:35.015Z,92.00
2019-01-30T21:14:01.614Z,92.10
2019-01-30T21:16:29.109Z,92.10
2019-01-30T21:18:55.753Z,92.00
2019-01-30T21:21:22.376Z,92.50
2019-01-30T21:23:49.315Z,92.60
2019-01-30T21:26:16.181Z,93.60
2019-01-30T21:28:42.994Z,92.80
2019-01-30T21:31:09.730Z,92.50
2019-01-30T21:33:36.375Z,91.80
2019-01-30T21:36:03.181Z,91.20
2019-01-30T21:38:31.190Z,91.20
2019-01-30T21:40:57.898Z,91.40
2019-01-30T21:43:24.725Z,91.60
2019-01-30T21:45:51.552Z,91.90
2019-01-30T21:48:18.505Z,92.30
2019-01-30T21:50:45.164Z,92.20
2019-01-30T21:53:11.771Z,92.20
2019-01-30T21:55:38.656Z,91.90
2019-01-30T21:58:05.821Z,91.30
2019-01-30T22:00:32.893Z,90.80
2019-01-30T22:02:59.737Z,91.30
2019-01-30T22:05:26.737Z,91.30
2019-01-30T22:08:00.723Z,90.90
2019-01-30T22:10:22.052Z,91.80
2019-01-30T22:12:48.874Z,92.30
2019-01-30T22:15:16.091Z,92.10
2019-01-30T22:17:43.005Z,91.60
2019-01-30T22:20:09.955Z,93.10
2019-01-30T22:22:36.804Z,92.80
2019-01-30T22:25:03.444Z,92.90
2019-01-30T22:27:30.211Z,92.70
2019-01-30T22:29:57.102Z,92.10
2019-01-30T22:32:23.736Z,91.50
2019-01-30T22:34:50.489Z,91.20
2019-01-30T22:37:17.277Z,91.20
2019-01-30T22:39:44.243Z,90.90
2019-01-30T22:42:11.228Z,91.40
2019-01-30T22:44:37.860Z,92.00
2019-01-30T22:47:04.522Z,92.90
2019-01-30T22:49:32.820Z,93.30
2019-01-30T22:51:59.606Z,94.20
2019-01-30T22:54:26.450Z,94.00
2019-01-30T22:56:53.169Z,95.60
2019-01-30T22:59:19.906Z,96.00
2019-01-30T23:01:46.612Z,95.80
2019-01-30T23:04:13.731Z,94.70
2019-01-30T23:06:40.636Z,93.70
2019-01-30T23:09:07.550Z,93.80
2019-01-30T23:11:34.567Z,93.20
2019-01-30T23:14:02.418Z,92.70
2019-01-30T23:16:29.154Z,93.30
2019-01-30T23:18:55.835Z,93.50
2019-01-30T23:21:22.825Z,93.00
2019-01-30T23:23:49.437Z,92.60
2019-01-30T23:26:16.082Z,92.60
2019-01-30T23:28:43.300Z,93.30
2019-01-30T23:31:10.208Z,94.70
2019-01-30T23:33:37.098Z,95.40
2019-01-30T23:36:04.328Z,98.00
2019-01-30T23:38:34.299Z,98.10
2019-01-30T23:40:59.478Z,96.30
2019-01-30T23:43:26.341Z,95.20
2019-01-30T23:45:53.040Z,94.40
2019-01-30T23:48:19.661Z,94.00
2019-01-30T23:50:46.750Z,94.00
2019-01-30T23:53:13.675Z,93.70
2019-01-30T23:55:40.756Z,93.10
2019-01-30T23:58:07.821Z,92.90
